Time;durP1;ratioP1;P1;durP2;ratioP2;P2;SDS_P1;SDS_P2;PMS_P1;PMS_P2;Temp;Humidity;BMP_temperature;BMP_pressure;BME280_temperature;BME280_humidity;BME280_pressure;Samples;Min_cycle;Max_cycle;Signal;HPM_P1;HPM_P2
2023/09/11 00:00:30;;;;;;;6.45;1.50;;;;;;;18.25;100.00;100041.06;4798596;29;20041;-80
2023/09/11 00:02:58;;;;;;;9.65;1.70;;;;;;;18.34;100.00;100045.22;4827895;29;20050;-79
2023/09/11 00:05:25;;;;;;;6.38;2.42;;;;;;;18.31;100.00;100042.94;4809197;29;20061;-80
2023/09/11 00:07:54;;;;;;;5.55;1.60;;;;;;;18.32;100.00;100049.09;4819571;29;20041;-80
2023/09/11 00:10:22;;;;;;;7.32;1.95;;;;;;;18.29;100.00;100047.66;4805946;29;20085;-79
2023/09/11 00:12:49;;;;;;;9.10;1.83;;;;;;;18.30;100.00;100045.81;4807537;29;20107;-80
2023/09/11 00:15:17;;;;;;;7.93;1.75;;;;;;;18.24;100.00;100044.78;4800350;29;20050;-80
2023/09/11 00:17:45;;;;;;;4.13;2.00;;;;;;;18.29;100.00;100045.00;4804712;29;20041;-80
2023/09/11 00:20:13;;;;;;;5.40;1.50;;;;;;;18.27;100.00;100041.69;4804397;29;20030;-79
2023/09/11 00:22:40;;;;;;;14.10;2.65;;;;;;;18.29;100.00;100036.13;4819202;29;20112;-80
2023/09/11 00:25:08;;;;;;;10.73;1.70;;;;;;;18.27;100.00;100038.22;4790970;29;20033;-80
2023/09/11 00:27:37;;;;;;;2.53;1.13;;;;;;;18.35;100.00;100027.28;4821260;29;20071;-81
2023/09/11 00:30:06;;;;;;;6.05;1.52;;;;;;;18.40;100.00;100024.81;4811233;29;20042;-80
2023/09/11 00:32:36;;;;;;;8.18;1.45;;;;;;;18.46;100.00;100023.16;4804375;29;20095;-80
2023/09/11 00:35:06;;;;;;;12.15;2.38;;;;;;;18.51;100.00;100031.41;4805950;29;20034;-80
2023/09/11 00:37:35;;;;;;;4.15;1.20;;;;;;;18.56;100.00;100025.41;4807707;29;20053;-79
2023/09/11 00:40:04;;;;;;;5.78;1.83;;;;;;;18.58;100.00;100023.38;4789881;29;20046;-79
2023/09/11 00:42:31;;;;;;;3.13;1.17;;;;;;;18.59;100.00;100023.16;4824893;29;20030;-80
2023/09/11 00:44:59;;;;;;;7.30;1.75;;;;;;;18.58;100.00;100023.38;4801673;29;20038;-80
2023/09/11 00:47:27;;;;;;;5.32;2.05;;;;;;;18.60;100.00;100021.31;4805608;29;20080;-79
2023/09/11 00:49:58;;;;;;;6.20;1.60;;;;;;;18.52;100.00;100016.97;4805675;29;20038;-79
2023/09/11 00:52:26;;;;;;;4.28;1.30;;;;;;;18.50;100.00;100027.09;4801213;29;20038;-80
2023/09/11 00:54:55;;;;;;;2.92;1.40;;;;;;;18.45;100.00;100018.84;4816125;29;20046;-80
2023/09/11 00:57:23;;;;;;;8.43;2.30;;;;;;;18.44;100.00;100020.69;4818034;29;20041;-79
2023/09/11 00:59:51;;;;;;;9.93;1.50;;;;;;;18.39;100.00;100015.16;4835867;29;20030;-79
2023/09/11 01:02:22;;;;;;;4.47;1.60;;;;;;;18.41;100.00;100017.63;4822253;29;20038;-79
2023/09/11 01:04:52;;;;;;;7.22;2.05;;;;;;;18.39;100.00;100009.81;4808730;29;20046;-79
2023/09/11 01:07:21;;;;;;;4.30;1.48;;;;;;;18.39;100.00;100017.00;4813118;29;20034;-81
2023/09/11 01:09:50;;;;;;;7.20;1.85;;;;;;;18.38;100.00;100016.16;4824118;29;20041;-78
2023/09/11 01:12:18;;;;;;;7.05;1.75;;;;;;;18.34;100.00;100013.09;4812822;29;20368;-79
2023/09/11 01:14:46;;;;;;;4.38;1.40;;;;;;;18.34;100.00;100014.94;4805721;29;20048;-80
2023/09/11 01:17:35;;;;;;;2.70;1.35;;;;;;;18.33;100.00;100013.31;4820913;29;20589;-79
2023/09/11 01:20:24;;;;;;;4.93;1.70;;;;;;;18.32;100.00;100009.81;4808679;29;20052;-80
2023/09/11 01:23:30;;;;;;;5.30;1.83;;;;;;;18.28;100.00;100011.25;4798427;29;20498;-78
2023/09/11 01:26:22;;;;;;;10.95;1.50;;;;;;;18.22;100.00;100007.53;4826133;29;20033;-79
2023/09/11 01:29:12;;;;;;;4.15;1.35;;;;;;;18.24;100.00;100020.69;4825076;29;20049;-80
2023/09/11 01:31:43;;;;;;;4.90;1.50;;;;;;;18.19;100.00;100015.97;4838774;29;20042;-79
2023/09/11 01:34:12;;;;;;;6.80;1.27;;;;;;;18.13;100.00;100022.16;4838379;29;20037;-79
2023/09/11 01:36:40;;;;;;;5.00;1.50;;;;;;;18.15;100.00;100012.06;4809596;29;20041;-80
2023/09/11 01:39:08;;;;;;;4.50;1.15;;;;;;;18.17;100.00;100011.88;4822582;29;20042;-79
2023/09/11 01:41:40;;;;;;;3.78;1.25;;;;;;;18.18;100.00;100013.50;4830712;29;20022;-80
2023/09/11 01:44:31;;;;;;;5.35;1.05;;;;;;;18.13;100.00;100013.28;4838132;29;20042;-80
2023/09/11 01:47:02;;;;;;;2.40;1.13;;;;;;;18.08;100.00;100017.38;4829893;29;20176;-82
2023/09/11 01:49:33;;;;;;;3.95;1.00;;;;;;;18.09;100.00;100015.53;4816242;29;20042;-80
2023/09/11 01:52:04;;;;;;;1.90;1.08;;;;;;;18.09;100.00;100010.19;4825404;29;20138;-87
2023/09/11 01:54:36;;;;;;;2.45;0.80;;;;;;;18.05;100.00;100020.47;4806422;29;20058;-85
2023/09/11 01:57:05;;;;;;;3.20;1.20;;;;;;;18.04;100.00;100018.84;4808674;29;20050;-86
2023/09/11 01:59:33;;;;;;;1.52;0.93;;;;;;;18.01;100.00;100019.25;4821919;29;20052;-89
2023/09/11 02:02:01;;;;;;;3.00;1.10;;;;;;;18.01;100.00;100013.06;4794569;29;20042;-88
2023/09/11 02:04:29;;;;;;;1.83;0.80;;;;;;;18.03;100.00;100017.16;4786980;29;20038;-87
2023/09/11 02:06:57;;;;;;;7.18;0.90;;;;;;;18.09;100.00;100015.53;4805865;29;20038;-86
2023/09/11 02:09:24;;;;;;;5.00;0.90;;;;;;;18.05;100.00;100007.09;4780097;29;20729;-87
2023/09/11 02:11:53;;;;;;;1.98;0.98;;;;;;;18.07;100.00;100005.03;4807674;29;20138;-88
2023/09/11 02:14:20;;;;;;;2.50;0.55;;;;;;;18.04;100.00;100008.13;4778842;29;20387;-88
2023/09/11 02:16:48;;;;;;;2.97;0.60;;;;;;;18.04;100.00;100005.47;4792663;29;20050;-88
2023/09/11 02:19:16;;;;;;;2.28;0.63;;;;;;;18.01;100.00;100003.19;4807723;29;20038;-87
2023/09/11 02:21:45;;;;;;;3.22;0.68;;;;;;;18.02;100.00;100007.50;4795462;29;20034;-87
2023/09/11 02:24:14;;;;;;;1.30;0.73;;;;;;;17.96;100.00;100006.44;4795711;29;20675;-87
2023/09/11 02:26:42;;;;;;;3.90;1.10;;;;;;;17.91;100.00;100014.28;4787451;29;20084;-86
2023/09/11 02:29:11;;;;;;;1.23;0.80;;;;;;;17.95;100.00;100015.50;4769043;29;20045;-87
2023/09/11 02:31:41;;;;;;;1.83;0.50;;;;;;;17.94;100.00;100005.84;4791171;29;20046;-86
2023/09/11 02:34:11;;;;;;;1.23;0.50;;;;;;;17.96;100.00;100002.97;4790513;29;20049;-88
2023/09/11 02:36:41;;;;;;;1.13;0.50;;;;;;;18.05;100.00;100008.94;4803880;29;20039;-87
2023/09/11 02:39:10;;;;;;;2.28;0.73;;;;;;;18.04;100.00;100004.63;4815254;29;20047;-88
2023/09/11 02:41:39;;;;;;;1.45;0.47;;;;;;;18.07;100.00;100002.38;4784017;29;20394;-87
2023/09/11 02:44:07;;;;;;;3.88;0.60;;;;;;;18.03;100.00;100000.31;4805931;29;20073;-86
2023/09/11 02:46:36;;;;;;;2.45;0.50;;;;;;;18.07;100.00;99999.69;4800855;29;20042;-87
2023/09/11 02:49:04;;;;;;;2.63;0.70;;;;;;;18.04;100.00;99996.59;4793615;29;20046;-86
2023/09/11 02:51:31;;;;;;;1.25;0.50;;;;;;;18.07;100.00;99998.88;4806586;29;20157;-86
2023/09/11 02:53:59;;;;;;;0.82;0.63;;;;;;;18.05;100.00;99991.06;4787564;29;20508;-88
2023/09/11 02:56:27;;;;;;;1.55;0.55;;;;;;;18.08;100.00;99995.16;4777860;29;20049;-79
2023/09/11 02:58:55;;;;;;;0.93;0.50;;;;;;;18.04;100.00;99999.28;4790442;29;20061;-81
2023/09/11 03:01:24;;;;;;;0.75;0.40;;;;;;;18.02;100.00;99990.63;4794860;29;20042;-80
2023/09/11 03:03:53;;;;;;;5.22;0.52;;;;;;;17.99;100.00;99991.88;4803140;29;20103;-81
2023/09/11 03:06:21;;;;;;;1.60;0.60;;;;;;;17.97;100.00;99992.06;4778327;29;20038;-80
2023/09/11 03:08:51;;;;;;;2.45;0.85;;;;;;;18.01;100.00;99991.66;4801066;29;20038;-80
2023/09/11 03:11:21;;;;;;;3.03;0.50;;;;;;;17.96;100.00;99987.72;4823236;29;20046;-80
2023/09/11 03:13:50;;;;;;;0.75;0.40;;;;;;;17.95;100.00;99986.09;4788544;29;20034;-80
2023/09/11 03:16:18;;;;;;;3.15;0.50;;;;;;;17.94;100.00;99984.47;4803746;29;20556;-80
2023/09/11 03:18:54;;;;;;;2.70;0.40;;;;;;;17.95;100.00;99988.78;4832273;29;20079;-81
2023/09/11 03:21:23;;;;;;;1.13;0.50;;;;;;;17.92;100.00;99983.00;4804323;29;20042;-79
2023/09/11 03:23:51;;;;;;;4.25;0.68;;;;;;;17.95;100.00;99979.91;4788164;29;20135;-80
2023/09/11 03:26:18;;;;;;;1.98;0.43;;;;;;;17.88;100.00;99987.13;4788898;29;20451;-80
2023/09/11 03:28:52;;;;;;;1.33;0.50;;;;;;;17.85;100.00;99983.03;4797480;29;20038;-80
2023/09/11 03:31:27;;;;;;;3.72;0.43;;;;;;;17.87;100.00;99990.84;4798540;29;20034;-80
2023/09/11 03:33:58;;;;;;;1.33;0.40;;;;;;;17.87;100.00;99982.81;4800035;29;20099;-80
2023/09/11 03:36:27;;;;;;;1.50;0.40;;;;;;;17.79;100.00;99984.63;4807114;29;20042;-81
2023/09/11 03:38:56;;;;;;;2.75;0.68;;;;;;;17.70;100.00;99993.88;4818387;29;20068;-81
2023/09/11 03:41:24;;;;;;;1.98;0.50;;;;;;;17.63;100.00;99990.38;4803312;29;20134;-80
2023/09/11 03:43:54;;;;;;;2.53;0.70;;;;;;;17.59;100.00;99987.28;4792595;29;20467;-80
2023/09/11 03:46:23;;;;;;;3.90;0.60;;;;;;;17.56;100.00;99991.19;4803522;29;20753;-80
2023/09/11 03:48:51;;;;;;;4.43;0.68;;;;;;;17.53;100.00;99990.75;4811096;29;20522;-79
2023/09/11 03:51:20;;;;;;;4.97;0.85;;;;;;;17.53;100.00;99988.94;4801971;29;20117;-86
2023/09/11 03:53:50;;;;;;;2.58;0.60;;;;;;;17.57;100.00;99992.00;4802358;29;20043;-79
2023/09/11 03:56:24;;;;;;;1.25;0.60;;;;;;;17.58;100.00;100004.34;4786035;29;20042;-80
2023/09/11 03:58:52;;;;;;;1.92;0.70;;;;;;;17.57;100.00;99987.50;4775474;29;20038;-87
2023/09/11 04:01:21;;;;;;;2.03;0.52;;;;;;;17.59;100.00;99987.28;4775558;29;20459;-79
2023/09/11 04:03:48;;;;;;;1.63;0.63;;;;;;;17.59;100.00;99980.09;4773877;29;20121;-80
2023/09/11 04:06:19;;;;;;;0.43;0.43;;;;;;;17.64;100.00;99979.50;4817300;29;20099;-79
2023/09/11 04:08:49;;;;;;;0.93;0.65;;;;;;;17.69;100.00;99977.03;4804667;29;20057;-80
2023/09/11 04:11:19;;;;;;;3.50;0.50;;;;;;;17.73;100.00;99972.94;4773377;29;20582;-84
2023/09/11 04:13:50;;;;;;;1.98;0.55;;;;;;;17.83;100.00;99979.72;4818029;29;20038;-86
2023/09/11 04:16:21;;;;;;;2.03;0.40;;;;;;;17.84;100.00;99979.50;4791950;29;20034;-87
2023/09/11 04:18:49;;;;;;;4.45;0.60;;;;;;;17.85;100.00;99980.34;4805838;29;20046;-86
2023/09/11 04:21:16;;;;;;;1.05;0.40;;;;;;;17.83;100.00;99971.69;4779465;29;20043;-87
2023/09/11 04:23:45;;;;;;;2.10;0.47;;;;;;;17.81;100.00;99973.75;4807237;29;20038;-89
2023/09/11 04:26:15;;;;;;;2.72;0.52;;;;;;;17.85;100.00;99985.69;4799801;29;20084;-86
2023/09/11 04:28:45;;;;;;;1.02;0.40;;;;;;;17.80;100.00;99983.63;4785785;29;20488;-87
2023/09/11 04:31:16;;;;;;;0.75;0.50;;;;;;;17.82;100.00;99978.88;4789621;29;20514;-81
2023/09/11 04:33:45;;;;;;;0.47;0.35;;;;;;;17.81;100.00;99979.09;4780220;29;20046;-79
2023/09/11 04:36:14;;;;;;;0.40;0.30;;;;;;;17.82;100.00;99983.44;4795096;29;20071;-86
2023/09/11 04:38:42;;;;;;;1.83;1.02;;;;;;;17.78;100.00;99976.81;4812894;29;20113;-86
2023/09/11 04:41:10;;;;;;;1.05;0.40;;;;;;;17.81;100.00;99979.91;4791843;29;20034;-87
2023/09/11 04:43:38;;;;;;;0.95;0.47;;;;;;;17.77;100.00;99973.34;4823417;29;20117;-85
2023/09/11 04:46:06;;;;;;;1.73;0.47;;;;;;;17.75;100.00;99977.22;4780276;29;20038;-85
2023/09/11 04:48:33;;;;;;;1.98;0.63;;;;;;;17.69;100.00;99979.72;4809308;29;20137;-88
2023/09/11 04:51:01;;;;;;;3.67;0.73;;;;;;;17.67;100.00;99987.09;4776483;29;20053;-80
2023/09/11 04:53:29;;;;;;;1.58;0.65;;;;;;;17.60;100.00;99976.41;4798078;29;20058;-79
2023/09/11 04:55:57;;;;;;;1.35;0.63;;;;;;;17.65;100.00;99980.28;4807648;29;20041;-86
2023/09/11 04:58:25;;;;;;;1.15;0.50;;;;;;;17.60;100.00;99980.91;4812695;29;20042;-86
2023/09/11 05:00:55;;;;;;;0.70;0.57;;;;;;;17.63;100.00;99977.81;4811576;29;20105;-87
2023/09/11 05:03:24;;;;;;;2.00;0.73;;;;;;;17.60;100.00;99971.06;4798629;29;20509;-87
2023/09/11 05:05:52;;;;;;;0.82;0.60;;;;;;;17.58;100.00;99973.09;4812159;29;20773;-87
2023/09/11 05:08:20;;;;;;;1.20;0.80;;;;;;;17.59;100.00;99980.09;4813287;29;20040;-82
2023/09/11 05:10:48;;;;;;;0.68;0.50;;;;;;;17.54;100.00;99973.69;4809713;29;20042;-86
2023/09/11 05:13:17;;;;;;;1.23;0.65;;;;;;;17.53;100.00;99980.06;4819924;29;20048;-87
2023/09/11 05:15:48;;;;;;;1.67;0.80;;;;;;;17.44;100.00;99977.59;4808603;29;20034;-86
2023/09/11 05:18:17;;;;;;;2.17;0.70;;;;;;;17.43;100.00;99978.63;4822530;29;20042;-81
2023/09/11 05:20:46;;;;;;;3.22;0.68;;;;;;;17.38;100.00;99978.41;4823006;29;20050;-81
2023/09/11 05:23:15;;;;;;;1.92;0.77;;;;;;;17.39;100.00;99984.56;4806063;29;20046;-80
2023/09/11 05:25:42;;;;;;;1.02;0.70;;;;;;;17.36;100.00;99991.94;4808737;29;20109;-80
2023/09/11 05:28:12;;;;;;;1.02;0.80;;;;;;;17.39;100.00;99987.25;4828992;29;20459;-79
2023/09/11 05:30:42;;;;;;;2.35;0.60;;;;;;;17.41;100.00;99995.84;4826098;29;20073;-79
2023/09/11 05:33:10;;;;;;;3.25;0.60;;;;;;;17.39;100.00;99993.38;4836356;29;20034;-80
2023/09/11 05:35:38;;;;;;;1.75;0.77;;;;;;;17.38;100.00;99993.59;4820846;29;20034;-79
2023/09/11 05:38:06;;;;;;;2.55;0.75;;;;;;;17.42;100.00;99995.69;4823620;29;20036;-78
2023/09/11 05:40:34;;;;;;;2.17;1.08;;;;;;;17.42;100.00;99997.53;4823684;29;20045;-80
2023/09/11 05:43:01;;;;;;;4.03;1.00;;;;;;;17.42;100.00;100000.19;4821387;29;20070;-80
2023/09/11 05:45:29;;;;;;;2.08;1.08;;;;;;;17.38;100.00;99990.91;4822052;29;20049;-79
2023/09/11 05:47:57;;;;;;;1.55;0.90;;;;;;;17.38;100.00;99994.41;4823389;29;20042;-78
2023/09/11 05:50:24;;;;;;;4.93;0.90;;;;;;;17.32;100.00;99992.56;4814373;29;20048;-78
2023/09/11 05:52:52;;;;;;;1.23;0.60;;;;;;;17.36;100.00;99996.47;4826356;29;20125;-80
2023/09/11 05:55:20;;;;;;;2.47;0.75;;;;;;;17.35;100.00;100000.16;4809362;29;20085;-79
2023/09/11 05:57:48;;;;;;;2.90;0.85;;;;;;;17.38;100.00;100002.44;4833139;29;20564;-79
2023/09/11 06:00:16;;;;;;;2.25;0.77;;;;;;;17.37;100.00;100000.78;4808604;29;20034;-80
2023/09/11 06:02:46;;;;;;;2.40;0.88;;;;;;;17.43;100.00;100005.34;4818394;29;20041;-80
2023/09/11 06:05:15;;;;;;;2.55;1.08;;;;;;;17.39;100.00;100009.41;4803913;29;20034;-79
2023/09/11 06:07:45;;;;;;;1.27;0.88;;;;;;;17.39;100.00;100009.41;4839425;29;20042;-80
2023/09/11 06:10:15;;;;;;;0.98;0.85;;;;;;;17.38;100.00;100010.44;4809550;29;20048;-79
2023/09/11 06:12:45;;;;;;;2.42;1.13;;;;;;;17.39;100.00;100011.28;4826818;29;20038;-80
2023/09/11 06:15:15;;;;;;;1.50;1.02;;;;;;;17.39;100.00;100005.94;4827404;29;20956;-80
2023/09/11 06:17:45;;;;;;;1.65;1.23;;;;;;;17.39;100.00;100008.63;4822969;29;20049;-79
2023/09/11 06:20:15;;;;;;;2.95;1.20;;;;;;;17.40;100.00;100010.25;4822697;29;20034;-79
2023/09/11 06:22:45;;;;;;;1.73;1.30;;;;;;;17.41;100.00;100015.38;4839087;29;20574;-79
2023/09/11 06:25:15;;;;;;;4.65;1.40;;;;;;;17.45;100.00;100015.81;4808718;29;20034;-79
2023/09/11 06:27:43;;;;;;;1.30;0.95;;;;;;;17.47;100.00;100019.94;4821875;29;20041;-79
2023/09/11 06:30:11;;;;;;;2.10;1.10;;;;;;;17.51;100.00;100019.53;4793140;29;20034;-78
2023/09/11 06:32:39;;;;;;;9.70;1.45;;;;;;;17.55;100.00;100026.94;4807206;29;20038;-81
2023/09/11 06:35:07;;;;;;;3.95;1.17;;;;;;;17.54;100.00;100021.78;4822182;29;20679;-78
2023/09/11 06:37:37;;;;;;;2.17;1.38;;;;;;;17.58;100.00;100023.88;4807690;29;20040;-79
2023/09/11 06:40:07;;;;;;;2.55;1.20;;;;;;;17.59;100.00;100030.03;4792610;29;20052;-79
2023/09/11 06:42:37;;;;;;;3.55;1.10;;;;;;;17.62;100.00;100034.97;4809628;29;20133;-80
2023/09/11 06:45:07;;;;;;;1.80;1.30;;;;;;;17.64;100.00;100035.63;4828058;29;20159;-79
2023/09/11 06:47:37;;;;;;;4.28;1.50;;;;;;;17.66;100.00;100035.41;4854854;29;20114;-86
2023/09/11 06:50:07;;;;;;;2.03;1.60;;;;;;;17.61;100.00;100036.81;4825093;29;20343;-79
2023/09/11 06:52:38;;;;;;;2.50;1.58;;;;;;;17.60;100.00;100029.00;4829564;29;20046;-80
2023/09/11 06:55:07;;;;;;;1.98;1.35;;;;;;;17.62;100.00;100032.31;4776090;29;20057;-79
2023/09/11 06:57:37;;;;;;;1.48;1.38;;;;;;;17.64;100.00;100032.94;4797346;29;20051;-81
2023/09/11 07:00:10;;;;;;;3.70;1.55;;;;;;;17.60;100.00;100031.69;4789196;29;20114;-80
2023/09/11 07:02:39;;;;;;;2.10;1.80;;;;;;;17.65;100.00;100036.41;4799442;29;20133;-79
2023/09/11 07:05:07;;;;;;;6.93;1.60;;;;;;;17.61;100.00;100036.00;4795671;29;20034;-79
2023/09/11 07:07:35;;;;;;;4.38;1.70;;;;;;;17.62;100.00;100043.00;4804313;29;20072;-79
2023/09/11 07:10:03;;;;;;;5.22;1.77;;;;;;;17.60;100.00;100039.69;4788763;29;20121;-80
2023/09/11 07:12:31;;;;;;;2.65;1.38;;;;;;;17.63;100.00;100044.63;4788158;29;20046;-79
2023/09/11 07:14:58;;;;;;;3.45;1.85;;;;;;;17.61;100.00;100052.84;4783176;29;20515;-80
2023/09/11 07:17:26;;;;;;;3.67;1.48;;;;;;;17.63;100.00;100047.31;4804316;29;20053;-79
2023/09/11 07:19:54;;;;;;;2.20;1.60;;;;;;;17.61;100.00;100055.53;4786799;29;20625;-80
2023/09/11 07:22:21;;;;;;;1.85;1.70;;;;;;;17.65;100.00;100058.63;4803682;29;20041;-80
2023/09/11 07:24:49;;;;;;;1.80;1.48;;;;;;;17.63;100.00;100047.31;4787857;29;20045;-80
2023/09/11 07:27:17;;;;;;;4.10;1.75;;;;;;;17.66;100.00;100054.94;4795850;29;20038;-79
2023/09/11 07:29:44;;;;;;;1.73;1.10;;;;;;;17.64;100.00;100058.84;4788210;29;20503;-80
2023/09/11 07:32:12;;;;;;;2.95;1.73;;;;;;;17.65;100.00;100063.13;4774310;29;20042;-79
2023/09/11 07:34:40;;;;;;;2.30;1.50;;;;;;;17.63;100.00;100062.53;4777547;29;20049;-80
2023/09/11 07:37:10;;;;;;;1.30;1.00;;;;;;;17.67;100.00;100066.44;4786824;29;20049;-80
2023/09/11 07:39:39;;;;;;;2.78;1.45;;;;;;;17.66;100.00;100062.94;4772843;29;20046;-79
2023/09/11 07:42:09;;;;;;;2.25;1.50;;;;;;;17.69;100.00;100062.56;4790154;29;20471;-81
2023/09/11 07:44:38;;;;;;;2.20;1.52;;;;;;;17.72;100.00;100058.66;4816402;29;20095;-78
2023/09/11 07:47:05;;;;;;;5.47;2.20;;;;;;;17.71;100.00;100065.84;4802172;29;20038;-80
2023/09/11 07:49:33;;;;;;;3.17;2.05;;;;;;;17.78;100.00;100063.19;4772638;29;20462;-81
2023/09/11 07:52:01;;;;;;;3.22;2.00;;;;;;;17.78;100.00;100063.19;4802622;29;20096;-79
2023/09/11 07:54:29;;;;;;;5.13;2.17;;;;;;;17.79;100.00;100064.03;4808285;29;20150;-80
2023/09/11 07:57:01;;;;;;;2.63;2.10;;;;;;;17.76;100.00;100065.25;4818849;29;20495;-79
2023/09/11 07:59:30;;;;;;;3.47;2.15;;;;;;;17.76;100.00;100065.25;4793393;29;20053;-79
2023/09/11 08:01:59;;;;;;;5.53;2.40;;;;;;;17.75;100.00;100065.44;4815315;29;20030;-79
2023/09/11 08:04:27;;;;;;;4.45;2.22;;;;;;;17.70;100.00;100066.88;4809187;29;20652;-79
2023/09/11 08:06:56;;;;;;;4.70;2.50;;;;;;;17.71;100.00;100067.72;4800227;29;20038;-80
2023/09/11 08:09:25;;;;;;;3.15;2.85;;;;;;;17.69;100.00;100064.41;4812616;29;20126;-80
2023/09/11 08:11:53;;;;;;;7.15;2.60;;;;;;;17.68;100.00;100068.09;4802549;29;20045;-80
2023/09/11 08:14:22;;;;;;;3.83;2.72;;;;;;;17.67;100.00;100061.94;4803801;29;20519;-80
2023/09/11 08:16:51;;;;;;;4.75;2.40;;;;;;;17.70;100.00;100055.34;4801559;29;20089;-79
2023/09/11 08:19:19;;;;;;;6.72;2.60;;;;;;;17.66;100.00;100059.47;4822706;29;20050;-81
2023/09/11 08:21:49;;;;;;;3.38;2.05;;;;;;;17.67;100.00;100059.25;4816162;29;20047;-79
2023/09/11 08:24:18;;;;;;;6.47;2.65;;;;;;;17.66;100.00;100062.94;4807472;29;20051;-79
2023/09/11 08:26:47;;;;;;;3.88;2.30;;;;;;;17.67;100.00;100066.44;4790141;29;20082;-79
2023/09/11 08:29:15;;;;;;;5.72;2.70;;;;;;;17.64;100.00;100062.34;4798401;29;20070;-79
2023/09/11 08:31:42;;;;;;;4.13;2.28;;;;;;;17.64;100.00;100065.00;4803189;29;20069;-78
2023/09/11 08:34:10;;;;;;;3.75;2.05;;;;;;;17.61;100.00;100058.19;4807815;29;20515;-79
2023/09/11 08:36:39;;;;;;;4.60;2.92;;;;;;;17.61;100.00;100063.53;4789553;29;20179;-78
2023/09/11 08:39:07;;;;;;;4.18;2.15;;;;;;;17.59;100.00;100070.13;4777022;29;20034;-81
2023/09/11 08:41:35;;;;;;;2.55;1.90;;;;;;;17.60;100.00;100072.59;4818882;29;20038;-80
2023/09/11 08:44:03;;;;;;;4.97;2.25;;;;;;;17.58;100.00;100069.28;4788563;29;20538;-79
2023/09/11 08:46:33;;;;;;;2.58;2.22;;;;;;;17.65;100.00;100068.50;4806309;29;20528;-80
2023/09/11 08:49:03;;;;;;;5.10;2.22;;;;;;;17.66;100.00;100070.16;4786065;29;20034;-79
2023/09/11 08:51:48;;;;;;;3.20;2.28;;;;;;;17.69;100.00;100072.44;4816709;29;20042;-79
2023/09/11 08:54:19;;;;;;;3.40;2.53;;;;;;;17.65;100.00;100068.50;4798271;29;20201;-78
2023/09/11 08:56:49;;;;;;;3.45;2.67;;;;;;;17.68;100.00;100078.78;4781522;29;20050;-78
2023/09/11 08:59:22;;;;;;;3.70;2.50;;;;;;;17.73;100.00;100076.34;4783953;29;20038;-79
2023/09/11 09:01:51;;;;;;;3.50;2.50;;;;;;;17.73;100.00;100068.31;4798190;29;20129;-79
2023/09/11 09:04:20;;;;;;;4.43;2.30;;;;;;;17.73;100.00;100074.50;4796823;29;20046;-79
2023/09/11 09:06:48;;;;;;;5.72;2.78;;;;;;;17.80;100.00;100069.19;4800529;29;20046;-79
2023/09/11 09:09:19;;;;;;;3.47;2.55;;;;;;;17.84;100.00;100077.59;4807138;29;20041;-79
2023/09/11 09:11:49;;;;;;;7.53;2.70;;;;;;;17.85;100.00;100066.69;4810399;29;20074;-79
2023/09/11 09:14:20;;;;;;;3.05;2.38;;;;;;;17.90;100.00;100074.13;4793106;29;20643;-79
2023/09/11 09:16:49;;;;;;;3.72;2.55;;;;;;;17.92;100.00;100072.06;4789854;29;20050;-78
2023/09/11 09:19:18;;;;;;;5.45;2.40;;;;;;;17.91;100.00;100067.75;4805113;29;20066;-79
2023/09/11 09:22:07;;;;;;;4.90;2.53;;;;;;;18.00;100.00;100073.72;4814478;29;20476;-80
2023/09/11 09:24:36;;;;;;;4.43;2.30;;;;;;;17.99;100.00;100072.09;4775540;29;20755;-80
2023/09/11 09:27:07;;;;;;;3.60;2.60;;;;;;;18.02;100.00;100076.19;4782851;29;20495;-78
2023/09/11 09:29:38;;;;;;;6.03;2.45;;;;;;;18.08;100.00;100075.38;4792770;29;20074;-78
2023/09/11 09:32:08;;;;;;;4.28;2.20;;;;;;;18.13;100.00;100082.81;4797624;29;20050;-80
2023/09/11 09:34:41;;;;;;;4.57;2.10;;;;;;;18.12;100.00;100087.38;4815095;29;20049;-80
2023/09/11 09:37:16;;;;;;;2.83;2.20;;;;;;;18.14;100.00;100087.16;4800386;29;20189;-79
2023/09/11 09:39:48;;;;;;;5.65;2.00;;;;;;;18.13;100.00;100083.66;4810838;29;21921;-80
2023/09/11 09:42:16;;;;;;;3.75;1.95;;;;;;;18.13;100.00;100089.00;4816783;29;20038;-79
2023/09/11 09:44:52;;;;;;;3.65;2.40;;;;;;;18.17;100.00;100090.25;4799706;29;20046;-79
2023/09/11 09:47:21;;;;;;;2.08;1.88;;;;;;;18.19;100.00;100090.88;4751444;29;20729;-80
2023/09/11 09:50:02;;;;;;;3.20;2.13;;;;;;;18.25;100.00;100083.88;4779946;29;20042;-78
2023/09/11 09:52:31;;;;;;;4.65;2.00;;;;;;;18.22;100.00;100082.44;4799176;29;20140;-79
2023/09/11 09:55:03;;;;;;;4.25;1.83;;;;;;;18.23;100.00;100077.91;4787598;29;20050;-80
2023/09/11 09:57:31;;;;;;;2.83;1.52;;;;;;;18.19;100.00;100088.19;4796261;29;20042;-79
2023/09/11 10:00:01;;;;;;;2.42;1.48;;;;;;;18.18;100.00;100091.06;4819021;29;20031;-80
2023/09/11 10:02:33;;;;;;;3.13;1.13;;;;;;;18.30;100.00;100089.44;4803240;29;20045;-80
2023/09/11 10:05:08;;;;;;;3.22;1.30;;;;;;;18.36;100.00;100077.09;4789813;29;20042;-80
2023/09/11 10:07:37;;;;;;;6.18;1.58;;;;;;;18.40;100.00;100080.19;4770403;29;20038;-79
2023/09/11 10:10:35;;;;;;;1.85;1.10;;;;;;;18.39;100.00;100086.56;4783828;29;20472;-78
2023/09/11 10:13:07;;;;;;;1.90;1.05;;;;;;;18.32;100.00;100084.72;4798268;29;20157;-78
2023/09/11 10:15:39;;;;;;;2.85;1.50;;;;;;;18.32;100.00;100090.06;4784871;29;20491;-79
2023/09/11 10:18:11;;;;;;;2.50;1.20;;;;;;;18.33;100.00;100094.38;4784320;29;20046;-79
2023/09/11 10:20:41;;;;;;;3.20;1.00;;;;;;;18.32;100.00;100091.91;4784708;29;20049;-80
2023/09/11 10:23:13;;;;;;;4.72;1.35;;;;;;;18.36;100.00;100093.16;4806257;29;20045;-90
2023/09/11 10:26:14;;;;;;;3.17;1.45;;;;;;;18.25;100.00;100089.22;4789777;29;20095;-91
2023/09/11 10:29:27;;;;;;;1.55;1.30;;;;;;;18.17;100.00;100092.09;4792299;29;20050;-88
2023/09/11 10:32:12;;;;;;;4.13;1.40;;;;;;;18.08;100.00;100088.75;4777041;29;20043;-89
2023/09/11 10:34:57;;;;;;;3.83;1.50;;;;;;;18.00;100.00;100094.31;4807636;29;20042;-90
2023/09/11 10:37:30;;;;;;;3.05;1.60;;;;;;;17.91;100.00;100097.16;4784891;29;20061;-90
2023/09/11 10:40:08;;;;;;;5.32;1.63;;;;;;;17.80;100.00;100095.91;4779889;29;20656;-91
2023/09/11 10:42:43;;;;;;;3.47;1.50;;;;;;;17.75;100.00;100106.38;4784170;29;20041;-92
2023/09/11 10:45:32;;;;;;;3.00;0.87;;;;;;;17.67;100.00;100109.22;4793796;29;20577;-91
2023/09/11 10:48:07;;;;;;;3.15;0.73;;;;;;;17.58;100.00;100111.25;4809076;29;21770;-91
2023/09/11 10:50:49;;;;;;;1.50;0.70;;;;;;;17.50;100.00;100098.03;4794686;29;20475;-89
2023/09/11 10:53:19;;;;;;;0.60;0.30;;;;;;;17.48;100.00;100106.25;4790776;29;20100;-89
2023/09/11 10:55:51;;;;;;;2.80;0.60;;;;;;;17.52;100.00;100106.69;4789530;29;20065;-91
2023/09/11 10:58:21;;;;;;;0.88;0.40;;;;;;;17.52;100.00;100104.03;4800321;29;20045;-88
2023/09/11 11:01:14;;;;;;;0.70;0.60;;;;;;;17.57;100.00;100102.41;4802130;29;20057;-87
2023/09/11 11:03:47;;;;;;;1.45;0.57;;;;;;;17.55;100.00;100103.63;4780104;29;20037;-90
2023/09/11 11:06:23;;;;;;;2.15;0.82;;;;;;;17.49;100.00;100099.88;4776880;29;20085;-90
2023/09/11 11:09:32;;;;;;;1.65;0.98;;;;;;;17.38;100.00;100093.25;4794841;29;20095;-88
2023/09/11 11:12:38;;;;;;;3.83;1.05;;;;;;;17.40;100.00;100104.59;4809209;29;20121;-86
2023/09/11 11:15:23;;;;;;;5.00;1.10;;;;;;;17.38;100.00;100095.94;4808671;29;20107;-88
2023/09/11 11:18:27;;;;;;;1.80;1.00;;;;;;;17.39;100.00;100105.59;4784559;29;20038;-89
2023/09/11 11:21:01;;;;;;;2.28;0.90;;;;;;;17.46;100.00;100101.13;4780799;29;20131;-87
2023/09/11 11:23:33;;;;;;;2.92;1.00;;;;;;;17.56;100.00;100108.78;4771561;29;20046;-87
2023/09/11 11:26:10;;;;;;;3.33;1.23;;;;;;;17.65;100.00;100104.06;4773913;29;20290;-89
2023/09/11 11:28:42;;;;;;;2.20;1.10;;;;;;;17.70;100.00;100109.66;4800155;29;20168;-87
2023/09/11 11:31:18;;;;;;;4.40;1.25;;;;;;;17.80;100.00;100103.09;4805668;29;20061;-86
2023/09/11 11:33:53;;;;;;;4.63;1.20;;;;;;;17.82;100.00;100095.69;4776539;29;20045;-87
2023/09/11 11:36:21;;;;;;;2.40;1.60;;;;;;;17.81;100.00;100094.88;4792428;29;20046;-87